Time;durP1;ratioP1;P1;durP2;ratioP2;P2;SDS_P1;SDS_P2;PMS_P1;PMS_P2;Temp;Humidity;BMP_temperature;BMP_pressure;BME280_temperature;BME280_humidity;BME280_pressure;Samples;Min_cycle;Max_cycle;Signal;HPM_P1;HPM_P2
2022/09/05 00:02:34;;;;;;;4.10;3.47;;;16.40;61.20;;;;;;5240108;28;20831;-48
2022/09/05 00:05:44;;;;;;;4.97;3.37;;;16.40;61.40;;;;;;5235488;28;20425;-50
2022/09/05 00:08:43;;;;;;;5.07;3.97;;;16.40;61.50;;;;;;5223702;28;20473;-48
2022/09/05 00:11:18;;;;;;;3.73;3.20;;;16.30;61.60;;;;;;5224792;28;20853;-48
2022/09/05 00:14:05;;;;;;;3.53;3.23;;;16.30;61.60;;;;;;5227491;28;20436;-48
2022/09/05 00:16:57;;;;;;;5.97;3.07;;;16.30;61.60;;;;;;5229480;28;20486;-47
2022/09/05 00:20:01;;;;;;;3.70;3.40;;;16.30;61.70;;;;;;5221112;28;20986;-50
2022/09/05 00:22:44;;;;;;;4.93;3.60;;;16.30;61.60;;;;;;5228809;28;20460;-50
2022/09/05 00:25:48;;;;;;;5.10;3.57;;;16.30;61.60;;;;;;5236131;28;20978;-47
2022/09/05 00:28:37;;;;;;;4.97;3.20;;;16.30;61.90;;;;;;5226694;28;20453;-49
2022/09/05 00:31:13;;;;;;;10.87;3.57;;;16.20;62.90;;;;;;5222288;28;20441;-48
2022/09/05 00:33:57;;;;;;;8.97;3.13;;;16.10;62.20;;;;;;5226181;28;20475;-49
2022/09/05 00:36:38;;;;;;;5.67;4.00;;;16.10;62.30;;;;;;5230444;28;20971;-48
2022/09/05 00:39:12;;;;;;;4.20;3.80;;;16.10;62.60;;;;;;5232412;28;20438;-48
2022/09/05 00:41:48;;;;;;;3.50;3.20;;;16.00;62.60;;;;;;5220773;28;20451;-50
2022/09/05 00:44:22;;;;;;;5.83;3.63;;;16.00;62.90;;;;;;5226066;28;20800;-48
2022/09/05 00:47:02;;;;;;;4.40;4.00;;;16.00;63.00;;;;;;5233163;28;20545;-49
2022/09/05 00:50:00;;;;;;;4.17;3.80;;;16.00;63.30;;;;;;5224977;28;20948;-49
2022/09/05 00:52:43;;;;;;;11.60;4.20;;;15.90;63.30;;;;;;5225771;28;20514;-47
2022/09/05 00:55:33;;;;;;;6.37;3.90;;;15.90;63.50;;;;;;5222872;28;20452;-49
2022/09/05 00:58:29;;;;;;;5.47;4.10;;;15.90;63.70;;;;;;5221551;28;20547;-49
2022/09/05 01:01:03;;;;;;;7.77;3.70;;;15.90;64.60;;;;;;5221900;28;20900;-48
2022/09/05 01:03:33;;;;;;;4.90;4.40;;;15.80;64.00;;;;;;5233383;28;20488;-48
2022/09/05 01:06:27;;;;;;;5.43;3.43;;;15.90;64.40;;;;;;5227086;28;20436;-50
2022/09/05 01:09:11;;;;;;;3.53;3.33;;;15.80;64.50;;;;;;5225942;28;20194;-48
2022/09/05 01:11:49;;;;;;;7.07;3.50;;;15.80;64.80;;;;;;5232567;28;20475;-48
2022/09/05 01:14:25;;;;;;;3.30;3.10;;;15.80;64.90;;;;;;5223232;28;20429;-48
2022/09/05 01:17:26;;;;;;;8.50;3.87;;;15.80;65.20;;;;;;5237644;28;20596;-47
2022/09/05 01:20:08;;;;;;;8.13;4.13;;;15.70;65.10;;;;;;5220980;28;20890;-48
2022/09/05 01:23:20;;;;;;;5.30;3.77;;;15.80;65.50;;;;;;5226677;28;20465;-47
2022/09/05 01:25:59;;;;;;;3.57;3.33;;;15.70;65.80;;;;;;5232442;28;20455;-48
2022/09/05 01:28:39;;;;;;;3.53;3.33;;;15.70;66.00;;;;;;5240911;28;20433;-48
2022/09/05 01:31:40;;;;;;;4.20;3.90;;;15.70;66.10;;;;;;5221605;28;20452;-48
2022/09/05 01:34:29;;;;;;;7.10;3.80;;;15.70;66.30;;;;;;5223894;28;20974;-48
2022/09/05 01:37:21;;;;;;;4.70;4.30;;;15.70;66.40;;;;;;5240843;28;20476;-48
2022/09/05 01:40:25;;;;;;;4.03;3.73;;;15.70;66.70;;;;;;5233903;28;20480;-49
2022/09/05 01:43:02;;;;;;;5.63;3.90;;;15.70;66.90;;;;;;5248776;28;20827;-49
2022/09/05 01:45:47;;;;;;;3.67;3.37;;;15.70;67.10;;;;;;5231539;28;20813;-49
2022/09/05 01:48:20;;;;;;;7.20;4.23;;;15.60;67.30;;;;;;5214006;28;20449;-48
2022/09/05 01:51:25;;;;;;;6.93;3.77;;;15.60;67.60;;;;;;5218447;28;20445;-49
2022/09/05 01:54:36;;;;;;;11.07;4.27;;;15.50;68.00;;;;;;5222743;28;20445;-48
2022/09/05 01:57:14;;;;;;;5.23;4.13;;;15.50;68.40;;;;;;5222975;28;20473;-47
2022/09/05 02:00:03;;;;;;;4.47;3.90;;;15.40;68.80;;;;;;5232632;28;20454;-49
2022/09/05 02:03:08;;;;;;;8.47;3.90;;;15.40;69.30;;;;;;5225865;28;20553;-48
2022/09/05 02:06:10;;;;;;;4.60;3.83;;;15.30;69.60;;;;;;5223463;28;20437;-48
2022/09/05 02:09:02;;;;;;;4.30;3.90;;;15.30;70.10;;;;;;5219971;28;20441;-49
2022/09/05 02:12:22;;;;;;;3.97;3.73;;;15.30;70.50;;;;;;5226599;28;20437;-47
2022/09/05 02:14:53;;;;;;;16.83;3.80;;;15.20;70.90;;;;;;5225741;28;21073;-47
2022/09/05 02:17:42;;;;;;;4.07;3.63;;;15.20;71.30;;;;;;5227548;28;20559;-47
2022/09/05 02:20:30;;;;;;;3.90;3.70;;;15.20;72.30;;;;;;5218404;28;20188;-48
2022/09/05 02:23:09;;;;;;;9.43;4.70;;;15.20;71.80;;;;;;5232245;28;20877;-48
2022/09/05 02:25:45;;;;;;;8.10;4.60;;;15.20;72.20;;;;;;5223323;28;20433;-47
2022/09/05 02:28:28;;;;;;;4.63;4.27;;;15.20;72.70;;;;;;5232023;28;20453;-48
2022/09/05 02:31:14;;;;;;;5.53;4.67;;;15.10;72.80;;;;;;5234405;28;20438;-49
2022/09/05 02:33:55;;;;;;;9.53;4.13;;;15.10;73.20;;;;;;5226478;28;20440;-47
2022/09/05 02:36:57;;;;;;;6.23;4.47;;;15.10;73.40;;;;;;5233718;28;20465;-52
2022/09/05 02:39:45;;;;;;;5.03;4.10;;;15.10;73.70;;;;;;5183368;28;20504;-48
2022/09/05 02:42:30;;;;;;;4.40;3.87;;;15.10;74.00;;;;;;5229227;28;20568;-48
2022/09/05 02:45:11;;;;;;;4.57;3.83;;;15.10;74.30;;;;;;5238891;28;20489;-48
2022/09/05 02:48:08;;;;;;;9.13;4.67;;;15.10;74.50;;;;;;5227982;28;20463;-48
2022/09/05 02:50:56;;;;;;;5.43;3.93;;;15.10;74.50;;;;;;5210471;28;20468;-49
2022/09/05 02:53:28;;;;;;;4.20;3.80;;;15.10;74.80;;;;;;5230368;28;20572;-47
2022/09/05 02:56:27;;;;;;;4.23;3.87;;;15.10;75.00;;;;;;5215597;28;20548;-47
2022/09/05 02:59:03;;;;;;;10.23;4.30;;;15.10;75.00;;;;;;5226038;28;21218;-49
2022/09/05 03:01:48;;;;;;;4.43;4.00;;;15.10;75.20;;;;;;5233294;28;20440;-48
2022/09/05 03:04:26;;;;;;;4.93;4.00;;;15.10;75.50;;;;;;5248489;28;20795;-49
2022/09/05 03:07:10;;;;;;;7.63;4.40;;;15.10;75.70;;;;;;5234089;28;20505;-50
2022/09/05 03:09:49;;;;;;;5.53;4.50;;;15.00;75.90;;;;;;5248112;28;20479;-48
2022/09/05 03:12:43;;;;;;;5.50;4.27;;;15.00;76.10;;;;;;5219775;28;20483;-47
2022/09/05 03:15:35;;;;;;;6.47;3.67;;;14.90;76.60;;;;;;5225243;28;20432;-49
2022/09/05 03:18:43;;;;;;;6.90;3.60;;;14.90;77.30;;;;;;5236811;28;20457;-48
2022/09/05 03:21:31;;;;;;;6.23;3.50;;;14.90;77.50;;;;;;5236451;28;20983;-50
2022/09/05 03:24:28;;;;;;;4.37;3.97;;;14.90;77.90;;;;;;5220764;28;20458;-49
2022/09/05 03:27:14;;;;;;;3.93;3.50;;;14.90;78.40;;;;;;5247503;28;20814;-49
2022/09/05 03:30:07;;;;;;;5.57;3.60;;;14.80;78.80;;;;;;5210906;28;20444;-49
2022/09/05 03:32:48;;;;;;;5.20;3.07;;;14.80;79.30;;;;;;5226631;28;20438;-49
2022/09/05 03:35:31;;;;;;;4.10;3.70;;;14.80;79.80;;;;;;5221096;28;20450;-49
2022/09/05 03:38:22;;;;;;;10.47;4.23;;;14.80;80.20;;;;;;5219599;28;20453;-49
2022/09/05 03:41:00;;;;;;;8.43;3.23;;;14.70;80.90;;;;;;5220298;28;20452;-48
2022/09/05 03:43:49;;;;;;;8.37;3.90;;;14.70;81.30;;;;;;5220857;28;20466;-49
2022/09/05 03:46:45;;;;;;;4.13;3.80;;;14.70;81.90;;;;;;5231266;28;20465;-47
2022/09/05 03:49:41;;;;;;;4.33;3.57;;;14.70;82.30;;;;;;5222117;28;20457;-48
2022/09/05 03:52:35;;;;;;;3.90;3.60;;;14.60;82.90;;;;;;5225577;28;20774;-50
2022/09/05 03:55:08;;;;;;;5.73;3.80;;;14.60;83.50;;;;;;5230840;28;20799;-50
2022/09/05 03:58:08;;;;;;;5.80;3.50;;;14.50;84.10;;;;;;5225639;28;20472;-51
2022/09/05 04:00:45;;;;;;;4.70;3.80;;;14.50;84.70;;;;;;5222371;28;20444;-50
2022/09/05 04:03:39;;;;;;;6.67;3.60;;;14.50;85.30;;;;;;5213581;28;20808;-50
2022/09/05 04:06:16;;;;;;;4.13;3.60;;;14.50;86.10;;;;;;5217727;28;20476;-49
2022/09/05 04:08:55;;;;;;;5.27;3.83;;;14.50;86.50;;;;;;5224224;28;20872;-51
2022/09/05 04:11:50;;;;;;;2.40;2.20;;;14.40;86.90;;;;;;5217189;28;20438;-51
2022/09/05 04:14:25;;;;;;;4.30;3.40;;;14.40;87.40;;;;;;5230499;28;20459;-52
2022/09/05 04:17:02;;;;;;;3.60;2.77;;;14.40;88.20;;;;;;5226511;28;20444;-51
2022/09/05 04:20:13;;;;;;;8.27;3.30;;;14.30;88.70;;;;;;5221899;28;20490;-50
2022/09/05 04:23:28;;;;;;;9.03;4.00;;;14.30;89.00;;;;;;5227374;28;20519;-50
2022/09/05 04:26:23;;;;;;;3.83;3.53;;;14.30;89.50;;;;;;5195771;28;20441;-51
2022/09/05 04:29:17;;;;;;;5.43;3.20;;;14.30;90.00;;;;;;5240526;28;20417;-53
2022/09/05 04:31:48;;;;;;;3.07;2.87;;;14.30;90.20;;;;;;5222686;28;20432;-48
2022/09/05 04:34:41;;;;;;;3.70;3.40;;;14.30;90.20;;;;;;5243427;28;20441;-51
2022/09/05 04:37:48;;;;;;;3.30;3.00;;;14.30;90.20;;;;;;5237039;28;20195;-50
2022/09/05 04:40:34;;;;;;;10.70;3.80;;;14.30;90.70;;;;;;5221925;28;20875;-51
2022/09/05 04:43:30;;;;;;;2.97;2.73;;;14.30;90.80;;;;;;5218602;28;20465;-49
2022/09/05 04:46:16;;;;;;;8.23;3.70;;;14.30;90.90;;;;;;5222223;28;20425;-50
2022/09/05 04:49:06;;;;;;;6.97;3.77;;;14.40;90.90;;;;;;5225851;28;20432;-49
2022/09/05 04:52:02;;;;;;;5.60;3.57;;;14.40;90.80;;;;;;5224427;28;20436;-48
2022/09/05 04:54:54;;;;;;;2.87;2.73;;;14.40;90.80;;;;;;5254405;28;20436;-51
2022/09/05 04:57:38;;;;;;;2.93;2.73;;;14.50;90.80;;;;;;5224076;28;20472;-51
2022/09/05 05:00:21;;;;;;;3.60;3.40;;;14.60;90.60;;;;;;5221254;28;20437;-50
2022/09/05 05:02:59;;;;;;;4.60;3.33;;;14.60;90.50;;;;;;5216636;28;20457;-52
2022/09/05 05:05:54;;;;;;;5.10;3.40;;;14.70;89.90;;;;;;5221821;28;20472;-52
2022/09/05 05:08:49;;;;;;;11.70;3.60;;;14.70;90.00;;;;;;5233976;28;20523;-50
2022/09/05 05:11:54;;;;;;;8.20;3.40;;;14.90;88.90;;;;;;5238025;28;20485;-51
2022/09/05 05:14:31;;;;;;;2.37;2.20;;;15.10;87.40;;;;;;5225135;28;20441;-51
2022/09/05 05:17:11;;;;;;;3.07;2.87;;;15.20;86.20;;;;;;5225762;28;20503;-51
2022/09/05 05:19:51;;;;;;;5.53;3.57;;;15.30;85.20;;;;;;5225425;28;20440;-51
2022/09/05 05:22:22;;;;;;;7.93;3.30;;;15.30;84.50;;;;;;5224253;28;20614;-52
2022/09/05 05:24:55;;;;;;;3.50;3.00;;;15.40;84.90;;;;;;5229844;28;20512;-52
2022/09/05 05:27:59;;;;;;;3.13;2.80;;;15.40;84.30;;;;;;5223672;28;20205;-52
2022/09/05 05:30:32;;;;;;;4.43;3.57;;;15.40;85.00;;;;;;5225235;28;20421;-52
2022/09/05 05:33:17;;;;;;;6.03;2.77;;;15.40;84.40;;;;;;5222085;28;20444;-51
2022/09/05 05:35:50;;;;;;;6.40;3.73;;;15.50;84.20;;;;;;5222313;28;20797;-52
2022/09/05 05:38:37;;;;;;;4.23;3.50;;;15.60;83.60;;;;;;5220217;28;20445;-51
2022/09/05 05:41:34;;;;;;;4.37;3.03;;;15.70;82.90;;;;;;5218946;28;20449;-51
2022/09/05 05:44:27;;;;;;;4.00;3.33;;;15.70;82.80;;;;;;5218845;28;20490;-50
2022/09/05 05:47:08;;;;;;;3.07;2.80;;;15.80;81.90;;;;;;5238938;28;20482;-52
2022/09/05 05:50:00;;;;;;;3.03;2.80;;;15.90;82.10;;;;;;5223098;28;20781;-50
2022/09/05 05:53:05;;;;;;;3.03;2.83;;;15.90;81.30;;;;;;5238402;28;20445;-50
2022/09/05 05:56:12;;;;;;;4.57;2.77;;;16.10;81.10;;;;;;5198998;28;20468;-50
2022/09/05 05:58:52;;;;;;;3.10;2.80;;;16.70;78.50;;;;;;5196942;28;20444;-51
2022/09/05 06:01:55;;;;;;;3.43;3.10;;;17.50;74.80;;;;;;5207557;28;20445;-50
2022/09/05 06:05:07;;;;;;;3.83;3.33;;;18.10;70.30;;;;;;5218752;28;20475;-53
2022/09/05 06:08:06;;;;;;;5.37;2.80;;;18.70;68.50;;;;;;5200774;28;20453;-51
2022/09/05 06:11:25;;;;;;;3.30;2.30;;;19.10;66.20;;;;;;5217207;28;20437;-49
2022/09/05 06:14:17;;;;;;;12.03;2.67;;;19.70;63.60;;;;;;5216547;28;20957;-51
2022/09/05 06:17:08;;;;;;;3.00;2.70;;;21.10;59.60;;;;;;5222551;28;20459;-51
2022/09/05 06:20:16;;;;;;;2.73;2.53;;;21.90;56.10;;;;;;5228359;28;20437;-51
2022/09/05 06:22:47;;;;;;;2.90;2.80;;;21.50;55.90;;;;;;5223384;28;20851;-50
2022/09/05 06:25:55;;;;;;;4.13;2.87;;;21.80;55.40;;;;;;5218684;28;20437;-51
2022/09/05 06:28:50;;;;;;;6.20;2.67;;;22.60;54.10;;;;;;5219016;28;20674;-50
2022/09/05 06:32:01;;;;;;;3.40;2.60;;;23.90;51.50;;;;;;5220051;28;20423;-53
2022/09/05 06:34:59;;;;;;;3.00;2.63;;;24.90;48.60;;;;;;5225659;28;20500;-51
2022/09/05 06:37:59;;;;;;;2.97;2.00;;;25.60;46.60;;;;;;5234432;28;20540;-50
2022/09/05 06:40:52;;;;;;;5.70;2.80;;;25.80;45.90;;;;;;5202226;28;20438;-52
2022/09/05 06:43:30;;;;;;;7.00;2.83;;;25.80;45.10;;;;;;5234801;28;20449;-51
2022/09/05 06:46:25;;;;;;;5.50;2.73;;;25.80;44.70;;;;;;5223510;28;20466;-50
2022/09/05 06:48:58;;;;;;;5.30;2.83;;;25.90;44.30;;;;;;5218785;28;20434;-51
2022/09/05 06:51:39;;;;;;;3.47;2.67;;;25.60;44.80;;;;;;5216790;28;20950;-51
2022/09/05 06:54:34;;;;;;;4.60;3.00;;;24.90;46.20;;;;;;5223346;28;20541;-51
2022/09/05 06:57:43;;;;;;;4.77;2.63;;;24.20;47.30;;;;;;5224231;28;20484;-53
2022/09/05 07:00:40;;;;;;;9.33;3.13;;;23.90;48.10;;;;;;5218889;28;20441;-50
2022/09/05 07:03:25;;;;;;;11.00;3.00;;;23.50;48.70;;;;;;5223956;28;20570;-53
2022/09/05 07:06:27;;;;;;;7.33;3.10;;;22.90;49.60;;;;;;5222266;28;20532;-51
2022/09/05 07:09:09;;;;;;;3.17;2.83;;;22.80;50.60;;;;;;5241441;28;20881;-51
2022/09/05 07:12:14;;;;;;;12.13;4.70;;;22.90;50.10;;;;;;5224415;28;20441;-52
2022/09/05 07:15:07;;;;;;;3.43;3.17;;;22.60;51.00;;;;;;5224084;28;20433;-52
2022/09/05 07:17:48;;;;;;;3.93;2.77;;;23.10;50.40;;;;;;5225965;28;20453;-52
2022/09/05 07:20:33;;;;;;;3.93;3.10;;;22.90;50.30;;;;;;5227077;28;20445;-51
2022/09/05 07:23:18;;;;;;;4.70;2.50;;;22.80;51.10;;;;;;5220947;28;20818;-52
2022/09/05 07:25:50;;;;;;;7.30;3.40;;;22.60;51.10;;;;;;5222920;28;20433;-50
2022/09/05 07:28:21;;;;;;;3.87;3.00;;;22.70;51.40;;;;;;5226532;28;20449;-51
2022/09/05 07:31:06;;;;;;;2.63;2.40;;;23.10;51.20;;;;;;5221561;28;20438;-52
2022/09/05 07:33:38;;;;;;;3.30;3.00;;;23.40;50.60;;;;;;5222569;28;20187;-51
2022/09/05 07:36:14;;;;;;;3.57;2.90;;;23.70;49.40;;;;;;5222061;28;20441;-49
2022/09/05 07:38:49;;;;;;;6.50;2.97;;;23.40;49.80;;;;;;5221227;28;20441;-52
2022/09/05 07:41:25;;;;;;;3.40;3.20;;;23.40;50.10;;;;;;5226342;28;20437;-52
2022/09/05 07:44:12;;;;;;;2.87;2.67;;;22.80;51.20;;;;;;5225711;28;20465;-51
2022/09/05 07:46:46;;;;;;;4.97;2.73;;;22.70;51.30;;;;;;5227319;28;20453;-53
2022/09/05 07:49:19;;;;;;;3.17;3.07;;;22.40;51.90;;;;;;5229753;28;20889;-53
2022/09/05 07:51:56;;;;;;;2.97;2.87;;;22.20;52.70;;;;;;5228164;28;20521;-50
2022/09/05 07:54:31;;;;;;;9.93;2.83;;;22.00;53.20;;;;;;5216668;28;20433;-51
2022/09/05 07:57:05;;;;;;;2.73;2.53;;;22.20;53.00;;;;;;5225267;28;20526;-52
2022/09/05 07:59:40;;;;;;;5.40;3.00;;;22.50;52.70;;;;;;5227890;28;20464;-50
2022/09/05 08:02:12;;;;;;;2.73;2.60;;;22.60;52.20;;;;;;5225817;28;20468;-52
2022/09/05 08:04:42;;;;;;;3.00;2.77;;;23.10;51.60;;;;;;5229947;28;20429;-51
2022/09/05 08:07:14;;;;;;;2.53;2.43;;;23.40;51.20;;;;;;5229459;28;20445;-50
2022/09/05 08:09:53;;;;;;;2.47;2.00;;;23.90;50.20;;;;;;5225212;28;20179;-52
2022/09/05 08:12:58;;;;;;;3.63;2.10;;;24.40;49.30;;;;;;5237180;28;20492;-51
2022/09/05 08:15:29;;;;;;;3.30;3.10;;;24.70;48.90;;;;;;5219636;28;20452;-52
2022/09/05 08:18:30;;;;;;;3.80;3.03;;;24.90;48.50;;;;;;5229846;28;20453;-50
2022/09/05 08:21:09;;;;;;;8.33;3.10;;;24.70;49.20;;;;;;5224840;28;20967;-50
2022/09/05 08:23:57;;;;;;;4.73;3.37;;;24.20;49.50;;;;;;5225472;28;20460;-51
2022/09/05 08:26:56;;;;;;;4.90;3.50;;;23.30;50.90;;;;;;5222987;28;20520;-52
2022/09/05 08:29:30;;;;;;;2.87;2.67;;;22.70;52.30;;;;;;5226073;28;20933;-52
2022/09/05 08:32:08;;;;;;;3.63;2.60;;;22.40;53.40;;;;;;5226175;28;20437;-50
2022/09/05 08:35:05;;;;;;;5.20;2.70;;;22.40;53.70;;;;;;5225179;28;20783;-48
2022/09/05 08:37:37;;;;;;;3.00;2.80;;;22.20;53.60;;;;;;5224194;28;21010;-50
2022/09/05 08:40:19;;;;;;;8.13;2.67;;;21.20;54.70;;;;;;5217269;28;20468;-51
2022/09/05 08:42:59;;;;;;;4.50;2.90;;;20.70;56.30;;;;;;5226169;28;20816;-52
2022/09/05 08:45:42;;;;;;;6.10;3.10;;;20.40;57.30;;;;;;5240541;28;20984;-51
2022/09/05 08:48:45;;;;;;;9.40;3.50;;;20.20;57.90;;;;;;5226353;28;20942;-50
2022/09/05 08:51:37;;;;;;;3.67;3.47;;;20.10;58.50;;;;;;5223910;28;20425;-50
2022/09/05 08:54:11;;;;;;;2.93;2.67;;;20.10;58.90;;;;;;5226643;28;20433;-51
2022/09/05 08:57:06;;;;;;;3.03;2.83;;;20.00;58.70;;;;;;5222800;28;20546;-52
2022/09/05 08:59:42;;;;;;;4.07;3.20;;;20.00;59.20;;;;;;5233330;28;20439;-52
2022/09/05 09:02:26;;;;;;;2.87;2.67;;;20.10;59.70;;;;;;5238235;28;20581;-52
2022/09/05 09:05:09;;;;;;;3.10;2.90;;;20.30;59.30;;;;;;5232054;28;20437;-50
2022/09/05 09:08:00;;;;;;;3.93;3.03;;;20.50;59.00;;;;;;5221647;28;20825;-51
2022/09/05 09:10:56;;;;;;;3.60;3.27;;;20.40;59.20;;;;;;5226503;28;20500;-51
2022/09/05 09:13:51;;;;;;;2.50;2.40;;;20.30;59.90;;;;;;5223105;28;20865;-52
2022/09/05 09:16:28;;;;;;;3.87;3.53;;;20.60;59.20;;;;;;5221501;28;20453;-49
2022/09/05 09:19:11;;;;;;;2.67;2.57;;;20.90;58.80;;;;;;5225040;28;20870;-53
2022/09/05 09:21:46;;;;;;;4.70;3.37;;;21.10;58.50;;;;;;5222677;28;20958;-51
2022/09/05 09:24:34;;;;;;;6.27;3.20;;;21.20;58.10;;;;;;5227037;28;20916;-50
2022/09/05 09:27:14;;;;;;;2.93;2.63;;;21.30;57.90;;;;;;5223040;28;20488;-52
2022/09/05 09:29:45;;;;;;;6.13;3.23;;;21.50;58.20;;;;;;5240996;28;20452;-51
2022/09/05 09:32:27;;;;;;;2.43;2.43;;;21.40;57.70;;;;;;5222998;28;20448;-51
2022/09/05 09:35:10;;;;;;;3.93;3.37;;;21.40;57.80;;;;;;5228340;28;20441;-52
2022/09/05 09:38:20;;;;;;;3.40;2.77;;;21.30;58.00;;;;;;5226682;28;20468;-51
2022/09/05 09:40:54;;;;;;;3.20;2.87;;;21.40;58.20;;;;;;5225135;28;20512;-48
2022/09/05 09:43:56;;;;;;;5.00;2.80;;;21.50;58.30;;;;;;5223728;28;20460;-52
2022/09/05 09:46:45;;;;;;;7.93;3.07;;;21.70;57.80;;;;;;5216329;28;20461;-51
2022/09/05 09:49:46;;;;;;;3.57;3.27;;;21.60;57.80;;;;;;5220447;28;20949;-52
2022/09/05 09:52:23;;;;;;;3.10;2.90;;;21.70;58.00;;;;;;5221121;28;20968;-51
2022/09/05 09:55:12;;;;;;;8.63;2.87;;;21.80;57.70;;;;;;5219484;28;20436;-52
2022/09/05 09:57:48;;;;;;;3.00;2.80;;;21.60;57.30;;;;;;5225804;28;20504;-48
2022/09/05 10:00:22;;;;;;;3.00;2.90;;;21.60;58.10;;;;;;5226491;28;20437;-49
2022/09/05 10:03:08;;;;;;;3.43;3.13;;;21.80;58.20;;;;;;5221502;28;20497;-49
2022/09/05 10:06:02;;;;;;;2.90;2.80;;;21.70;57.70;;;;;;5221069;28;20606;-47
2022/09/05 10:08:36;;;;;;;13.93;2.90;;;21.80;57.60;;;;;;5240115;28;20518;-47
2022/09/05 10:11:06;;;;;;;3.90;3.10;;;21.90;57.60;;;;;;5224182;28;20491;-48
2022/09/05 10:13:55;;;;;;;2.20;2.10;;;21.80;57.50;;;;;;5227195;28;20913;-48
2022/09/05 10:16:26;;;;;;;2.50;2.37;;;21.80;57.60;;;;;;5222818;28;20699;-48
2022/09/05 10:19:27;;;;;;;2.20;2.20;;;21.90;57.30;;;;;;5225338;28;20437;-48
2022/09/05 10:22:37;;;;;;;2.40;2.20;;;21.80;57.30;;;;;;5226341;28;20244;-48
2022/09/05 10:25:20;;;;;;;3.47;3.17;;;21.70;57.90;;;;;;5227045;28;21001;-47
2022/09/05 10:28:12;;;;;;;8.23;3.10;;;21.90;57.70;;;;;;5218547;28;20464;-50
2022/09/05 10:30:50;;;;;;;2.80;2.57;;;22.00;57.70;;;;;;5215964;28;20448;-49
2022/09/05 10:33:42;;;;;;;6.63;3.10;;;22.10;57.10;;;;;;5219100;28;20802;-47
2022/09/05 10:36:28;;;;;;;4.17;2.93;;;22.10;57.00;;;;;;5226880;28;20433;-47
2022/09/05 10:39:16;;;;;;;9.80;3.13;;;22.10;57.10;;;;;;5219713;28;20789;-48
2022/09/05 10:41:52;;;;;;;3.03;2.73;;;22.20;57.00;;;;;;5227785;28;20506;-47
2022/09/05 10:44:52;;;;;;;3.50;3.20;;;22.20;56.80;;;;;;5226053;28;20795;-46
2022/09/05 10:47:58;;;;;;;3.23;2.37;;;22.30;57.00;;;;;;5222487;28;20736;-48
2022/09/05 10:50:49;;;;;;;4.73;2.90;;;22.30;56.60;;;;;;5223489;28;20442;-48
2022/09/05 10:53:25;;;;;;;5.60;3.10;;;22.20;56.80;;;;;;5243387;28;20437;-46
2022/09/05 10:56:41;;;;;;;3.00;2.77;;;22.30;56.90;;;;;;5226476;28;20483;-48
2022/09/05 10:59:29;;;;;;;4.03;2.93;;;22.40;57.00;;;;;;5226895;28;20500;-48
2022/09/05 11:02:20;;;;;;;3.17;2.90;;;22.30;56.30;;;;;;5225030;28;20434;-48
2022/09/05 11:05:20;;;;;;;3.33;3.13;;;22.40;55.90;;;;;;5229846;28;20840;-50
2022/09/05 11:08:00;;;;;;;6.70;2.67;;;22.40;56.30;;;;;;5222109;28;20815;-47
2022/09/05 11:11:12;;;;;;;4.10;3.10;;;22.50;55.70;;;;;;5227127;28;21023;-49
2022/09/05 11:13:46;;;;;;;3.07;2.87;;;22.50;55.90;;;;;;5219439;28;20436;-49
2022/09/05 11:16:42;;;;;;;4.20;3.40;;;22.50;55.60;;;;;;5222596;28;20453;-48
2022/09/05 11:19:27;;;;;;;2.60;2.47;;;22.30;55.60;;;;;;5229984;28;20449;-46
2022/09/05 11:22:04;;;;;;;5.03;3.40;;;22.30;56.00;;;;;;5218618;28;20461;-49
2022/09/05 11:24:51;;;;;;;5.93;2.77;;;22.40;56.10;;;;;;5223599;28;20447;-50
2022/09/05 11:27:44;;;;;;;3.50;3.10;;;22.50;55.90;;;;;;5224069;28;20993;-50
2022/09/05 11:30:20;;;;;;;9.80;2.87;;;22.60;55.50;;;;;;5221314;28;20461;-49
2022/09/05 11:33:25;;;;;;;2.70;2.50;;;22.70;55.10;;;;;;5230665;28;20448;-50
2022/09/05 11:36:01;;;;;;;3.57;2.50;;;22.80;55.40;;;;;;5220363;28;20433;-51
2022/09/05 11:38:58;;;;;;;3.57;3.30;;;22.70;54.30;;;;;;5220574;28;20445;-50
2022/09/05 11:41:28;;;;;;;2.93;2.73;;;22.60;54.40;;;;;;5227845;28;20437;-47
2022/09/05 11:44:23;;;;;;;3.23;2.87;;;22.60;54.60;;;;;;5234021;28;20473;-47
2022/09/05 11:47:10;;;;;;;4.70;4.30;;;22.70;54.80;;;;;;5215743;28;20243;-48
2022/09/05 11:50:23;;;;;;;2.70;2.50;;;22.80;54.60;;;;;;5215749;28;20437;-48
2022/09/05 11:53:23;;;;;;;6.03;3.50;;;22.80;54.30;;;;;;5237124;28;20793;-49
2022/09/05 11:56:04;;;;;;;3.67;2.93;;;22.80;54.40;;;;;;5226160;28;20841;-50
2022/09/05 11:58:53;;;;;;;3.10;2.80;;;22.90;53.90;;;;;;5238474;28;20455;-49
2022/09/05 12:01:59;;;;;;;8.00;2.67;;;23.00;53.80;;;;;;5233591;28;20493;-47
2022/09/05 12:05:26;;;;;;;2.93;2.80;;;23.10;53.50;;;;;;5223221;28;20461;-50
2022/09/05 12:08:12;;;;;;;2.27;2.27;;;23.10;53.10;;;;;;5199906;28;20477;-49
2022/09/05 12:10:54;;;;;;;4.63;3.00;;;23.20;52.80;;;;;;5215591;28;20441;-48
2022/09/05 12:13:32;;;;;;;2.87;2.63;;;23.40;52.70;;;;;;5224595;28;20483;-48
2022/09/05 12:16:49;;;;;;;2.63;2.30;;;23.40;52.60;;;;;;5225161;28;21058;-48
2022/09/05 12:19:46;;;;;;;3.27;2.80;;;23.40;52.60;;;;;;5191391;28;20442;-49
2022/09/05 12:22:37;;;;;;;2.67;2.57;;;23.50;52.80;;;;;;5223330;28;20529;-51
2022/09/05 12:25:26;;;;;;;3.40;2.77;;;23.60;52.40;;;;;;5221211;28;20445;-49
2022/09/05 12:28:06;;;;;;;3.07;2.33;;;23.70;51.60;;;;;;5220771;28;20516;-50
2022/09/05 12:30:38;;;;;;;3.93;2.57;;;23.80;51.80;;;;;;5224964;28;20433;-49
2022/09/05 12:33:11;;;;;;;2.97;2.87;;;23.60;51.80;;;;;;5220004;28;20458;-50
2022/09/05 12:36:11;;;;;;;6.43;2.90;;;23.50;51.80;;;;;;5223876;28;20449;-50
2022/09/05 12:38:59;;;;;;;2.73;2.53;;;23.50;52.00;;;;;;5225862;28;20456;-50
2022/09/05 12:41:59;;;;;;;3.30;3.10;;;23.50;52.00;;;;;;5222287;28;20456;-48
2022/09/05 12:44:57;;;;;;;3.33;2.80;;;23.40;52.10;;;;;;5216420;28;20473;-49
2022/09/05 12:47:29;;;;;;;2.80;2.60;;;23.50;52.30;;;;;;5230777;28;20473;-49
2022/09/05 12:50:10;;;;;;;3.30;3.10;;;23.50;51.80;;;;;;5219749;28;20857;-48
2022/09/05 12:52:45;;;;;;;3.40;3.17;;;23.40;51.70;;;;;;5220897;28;20456;-47
2022/09/05 12:55:30;;;;;;;3.43;3.13;;;23.40;52.10;;;;;;5218934;28;20442;-51
2022/09/05 12:58:09;;;;;;;3.10;3.00;;;23.40;51.90;;;;;;5236694;28;20476;-48
2022/09/05 13:00:46;;;;;;;3.60;3.30;;;23.50;51.60;;;;;;5223630;28;20941;-49
2022/09/05 13:03:26;;;;;;;3.07;2.97;;;23.60;51.70;;;;;;5212871;28;20571;-51
2022/09/05 13:06:03;;;;;;;4.03;3.63;;;23.70;51.50;;;;;;5221571;28;20457;-49
2022/09/05 13:08:46;;;;;;;3.70;3.40;;;23.80;51.50;;;;;;5219945;28;20437;-56
2022/09/05 13:11:20;;;;;;;3.87;3.03;;;23.70;51.20;;;;;;5225480;28;20437;-47
2022/09/05 13:13:56;;;;;;;2.80;2.60;;;23.80;51.10;;;;;;5220975;28;20449;-48
2022/09/05 13:16:29;;;;;;;3.40;3.10;;;23.80;50.90;;;;;;5223073;28;20853;-48
2022/09/05 13:19:09;;;;;;;3.10;3.00;;;24.00;50.70;;;;;;5216294;28;20444;-50
2022/09/05 13:21:44;;;;;;;7.93;3.80;;;24.10;50.50;;;;;;5223251;28;20520;-47
2022/09/05 13:24:34;;;;;;;3.40;3.20;;;24.00;50.60;;;;;;5223477;28;20468;-49
2022/09/05 13:27:20;;;;;;;3.37;3.23;;;23.90;50.90;;;;;;5220428;28;20469;-49
2022/09/05 13:30:04;;;;;;;5.40;2.87;;;24.00;50.70;;;;;;5220745;28;20567;-48
2022/09/05 13:32:37;;;;;;;3.17;3.07;;;24.00;50.60;;;;;;5231693;28;20440;-48
2022/09/05 13:35:18;;;;;;;3.50;3.20;;;24.10;50.50;;;;;;5219332;28;20445;-47
2022/09/05 13:38:12;;;;;;;7.07;3.30;;;24.40;50.30;;;;;;5241602;28;20825;-49
2022/09/05 13:40:46;;;;;;;4.10;3.30;;;24.50;49.70;;;;;;5222735;28;20957;-49
2022/09/05 13:43:37;;;;;;;7.93;3.00;;;24.50;49.40;;;;;;5235966;28;20827;-48
2022/09/05 13:46:10;;;;;;;4.10;3.67;;;24.30;49.80;;;;;;5237407;28;20473;-48
2022/09/05 13:49:07;;;;;;;7.30;3.90;;;24.30;50.00;;;;;;5221226;28;20797;-48
2022/09/05 13:51:49;;;;;;;3.80;2.57;;;24.10;49.90;;;;;;5227826;28;21232;-49
2022/09/05 13:55:11;;;;;;;3.60;3.20;;;23.90;50.10;;;;;;5221211;28;20480;-49
2022/09/05 13:58:06;;;;;;;9.63;3.87;;;23.90;50.30;;;;;;5218821;28;20485;-48
2022/09/05 14:00:39;;;;;;;6.00;4.20;;;23.80;50.10;;;;;;5237743;28;20576;-50
2022/09/05 14:03:43;;;;;;;6.07;3.10;;;23.90;50.20;;;;;;5223130;28;21032;-49
2022/09/05 14:06:56;;;;;;;5.30;4.10;;;24.10;50.10;;;;;;5213986;28;20434;-49
2022/09/05 14:09:48;;;;;;;9.07;3.60;;;23.90;50.30;;;;;;5221758;28;20461;-49
2022/09/05 14:12:34;;;;;;;4.40;4.10;;;23.80;50.50;;;;;;5226089;28;20436;-48
2022/09/05 14:15:14;;;;;;;3.90;3.40;;;23.60;50.40;;;;;;5223440;28;20941;-47
2022/09/05 14:17:54;;;;;;;5.67;3.90;;;23.60;51.00;;;;;;5223833;28;20904;-49
2022/09/05 14:23:26;;;;;;;6.10;4.13;;;23.60;51.30;;;;;;5223332;28;20457;-50
2022/09/05 14:26:02;;;;;;;7.67;4.00;;;23.80;51.30;;;;;;5219377;28;20421;-50
2022/09/05 14:28:39;;;;;;;4.67;4.40;;;23.90;51.10;;;;;;5226163;28;20438;-49
2022/09/05 14:31:16;;;;;;;3.30;3.20;;;24.00;50.70;;;;;;5219672;28;20453;-49
2022/09/05 14:34:08;;;;;;;3.33;3.17;;;24.00;50.50;;;;;;5242844;28;20432;-48